Flight Track Log - Related Links

Times and Time Zones

All times are in EDT time to prevent confusion due to time zone crossing. See the TYR354 flight status page for this flight to view local times or setup timezone preferences in your user account.

Time Position Orientation Groundspeed Altitude Reporting Facility
EDT Latitude Longitude Course Direction KTS MPH feet Rate Location/Type
Mon 11:52:00 AM 50.8202 4.9613 105° East  Level Estimated
Mon 11:53:00 AM 50.7928 5.1199 105° East  Level Estimated
Mon 11:54:00 AM 50.7650 5.2783 105° East  Level Estimated
Mon 11:55:00 AM 50.7371 5.4365 106° East  Level Estimated
Mon 11:56:00 AM 50.7090 5.5945 106° East  Level Estimated
Mon 11:57:00 AM 50.6807 5.7523 106° East  Level Estimated
Mon 11:58:00 AM 50.6521 5.9100 106° East  Level Estimated
Mon 11:59:00 AM 50.6233 6.0674 106° East  Level Estimated
Mon 12:00:00 PM 50.5944 6.2247 106° East  Level Estimated
Mon 12:01:00 PM 50.5652 6.3817 106° East  Level Estimated
Mon 12:02:00 PM 50.5358 6.5386 106° East  Level Estimated
Mon 12:03:00 PM 50.5062 6.6952 106° East  Level Estimated
Mon 12:04:00 PM 50.4763 6.8517 107° East  Level Estimated
Mon 12:05:00 PM 50.4463 7.0080 107° East  Level Estimated
Mon 12:06:00 PM 50.4161 7.1641 107° East  Level Estimated
Mon 12:07:00 PM 50.3856 7.3199 107° East  Level Estimated
Mon 12:08:00 PM 50.3550 7.4756 107° East  Level Estimated
Mon 12:09:00 PM 50.3241 7.6311 107° East  Level Estimated
Mon 12:10:00 PM 50.2930 7.7863 107° East  Level Estimated
Mon 12:11:00 PM 50.2618 7.9414 107° East  Level Estimated
Mon 12:12:00 PM 50.2303 8.0962 108° East  Level Estimated
Mon 12:13:00 PM 50.1986 8.2509 108° East  Level Estimated
Mon 12:14:00 PM 50.1667 8.4053 108° East  Level Estimated
Mon 12:15:00 PM 50.1346 8.5596 108° East  Level Estimated
Mon 12:16:00 PM 50.1023 8.7136 108° East  Level Estimated
Mon 12:17:00 PM 50.0698 8.8674 108° East  Level Estimated
Mon 12:18:00 PM 50.0371 9.0211 108° East  Level Estimated
Mon 12:19:00 PM 50.0042 9.1745 108° East  Level Estimated
Mon 12:20:00 PM 49.9711 9.3277 109° East  Level Estimated
Mon 12:21:00 PM 49.9378 9.4807 109° East  Level Estimated
Mon 12:22:00 PM 49.9042 9.6334 109° East  Level Estimated
Mon 12:23:00 PM 49.8705 9.7860 109° East  Level Estimated
Mon 12:24:00 PM 49.8366 9.9383 109° East  Level Estimated
Mon 12:25:00 PM 49.8025 10.0905 109° East  Level Estimated
Mon 12:26:00 PM 49.7682 10.2424 109° East  Level Estimated
Mon 12:27:00 PM 49.7337 10.3941 109° East  Level Estimated
Mon 12:28:00 PM 49.6990 10.5456 109° East  Level Estimated
Mon 12:29:00 PM 49.6640 10.6968 110° East  Level Estimated
Mon 12:30:00 PM 49.6289 10.8479 110° East  Level Estimated
Mon 12:31:00 PM 49.5936 10.9987 110° East  Level Estimated
Mon 12:32:00 PM 49.5581 11.1493 110° East  Level Estimated
Mon 12:33:00 PM 49.5224 11.2997 110° East  Level Estimated
Mon 12:34:00 PM 49.4866 11.4499 110° East  Level Estimated
Mon 12:35:00 PM 49.4505 11.5998 110° East  Level Estimated
Mon 12:36:00 PM 49.4142 11.7496 110° East  Level Estimated
Mon 12:37:00 PM 49.3777 11.8991 110° East  Level Estimated
Mon 12:38:00 PM 49.3411 12.0484 111° Southeast  Level Estimated
Mon 12:39:00 PM 49.3042 12.1974 111° Southeast  Level Estimated
Mon 12:40:00 PM 49.2672 12.3463 111° Southeast  Level Estimated
Mon 12:41:00 PM 49.2300 12.4949 111° Southeast  Level Estimated
Mon 12:42:00 PM 49.1925 12.6433 111° Southeast  Level Estimated
Mon 12:43:00 PM 49.1549 12.7915 111° Southeast  Level Estimated
Mon 12:44:00 PM 49.1171 12.9394 111° Southeast  Level Estimated
Mon 12:45:00 PM 49.0791 13.0871 111° Southeast  Level Estimated
Mon 12:46:00 PM 49.0410 13.2346 112° Southeast  Level Estimated
Mon 12:47:00 PM 49.0026 13.3819 112° Southeast  Level Estimated
Mon 12:48:00 PM 48.9640 13.5289 112° Southeast  Level Estimated
Mon 12:49:00 PM 48.9253 13.6757 112° Southeast  Level Estimated
Mon 12:50:00 PM 48.8864 13.8223 112° Southeast  Level Estimated
Mon 12:51:00 PM 48.8473 13.9687 112° Southeast  Level Estimated
Mon 12:52:00 PM 48.8080 14.1148 112° Southeast  Level Estimated
Mon 12:53:00 PM 48.7685 14.2607 112° Southeast  Level Estimated
Mon 12:54:00 PM 48.7288 14.4063 112° Southeast  Level Estimated
Mon 12:55:00 PM 48.6890 14.5518 112° Southeast  Level Estimated
Mon 12:56:00 PM 48.6489 14.6970 113° Southeast  Level Estimated
Mon 12:57:00 PM 48.6087 14.8419 113° Southeast  Level Estimated
Mon 12:58:00 PM 48.5683 14.9867 113° Southeast  Level Estimated
Mon 12:59:00 PM 48.5277 15.1312 113° Southeast  Level Estimated
Mon 01:00:00 PM 48.4870 15.2755 113° Southeast  Level Estimated
Mon 01:01:00 PM 48.4460 15.4195 113° Southeast  Level Estimated
Mon 01:02:00 PM 48.4049 15.5633 113° Southeast  Level Estimated
Mon 01:03:00 PM 48.3636 15.7069 113° Southeast  Level Estimated
Mon 01:04:00 PM 48.3222 15.8503 113° Southeast  Level Estimated
Mon 01:05:00 PM 48.2805 15.9934 114° Southeast  Level Estimated
Mon 01:06:00 PM 48.2387 16.1362 114° Southeast  Level Estimated
Mon 01:07:00 PM 48.1967 16.2789 114° Southeast  Level Estimated
Mon 01:08:00 PM 48.1545 16.4213 114° Southeast  Level Estimated
Mon 01:09:00 PM 48.1121 16.5635 114° Southeast  Level Estimated
Mon 01:10:00 PM 48.1103 16.5697 114° Southeast  Level Estimated
Mon 01:11:00 PM 48.1103 16.5697 146° Southeast  Level Estimated
Mon 01:12:00 PM 48.1103 16.5697 146° Southeast  Level Estimated
Mon 01:13:00 PM 48.1103 16.5697 146° Southeast  Level Estimated
Mon 01:14:00 PM 48.1103 16.5697 146° Southeast  Level Estimated
Mon 01:15:00 PM 48.1103 16.5697 146° Southeast  Level Estimated
Mon 01:16:00 PM 48.1103 16.5697 146° Southeast  Level Estimated
Mon 01:17:00 PM 48.1103 16.5697 146° Southeast  Level Estimated
Mon 01:18:00 PM 48.1103 16.5697 146° Southeast  Level Estimated
Mon 01:19:00 PM 48.1103 16.5697 146° Southeast  Level Estimated
Mon 01:20:00 PM 48.1103 16.5697 146° Southeast  Level Estimated

Login

Don't have an account? Register now (free) for customized features, flight alerts, and more!